createdAt,value
2023-02-22T00:00:48.544Z,12.75
2023-02-22T00:06:06.173Z,12.35
2023-02-22T00:11:21.878Z,12.05
2023-02-22T00:16:37.390Z,12.55
2023-02-22T00:21:53.788Z,13.00
2023-02-22T00:27:09.917Z,13.48
2023-02-22T00:32:25.881Z,13.18
2023-02-22T00:37:44.365Z,12.95
2023-02-22T00:43:02.487Z,13.27
2023-02-22T00:48:18.489Z,13.10
2023-02-22T00:53:34.368Z,12.93
2023-02-22T00:58:50.011Z,13.70
2023-02-22T01:04:07.009Z,13.05
2023-02-22T01:09:22.884Z,12.02
2023-02-22T01:14:40.238Z,12.15
2023-02-22T01:19:56.356Z,12.23
2023-02-22T01:25:13.324Z,14.40
2023-02-22T01:30:33.080Z,15.15
2023-02-22T01:35:50.985Z,13.30
2023-02-22T01:41:06.766Z,12.63
2023-02-22T01:46:27.998Z,13.88
2023-02-22T01:51:48.909Z,16.00
2023-02-22T01:57:12.381Z,20.42
2023-02-22T02:02:28.691Z,17.60
2023-02-22T02:07:46.891Z,18.85
2023-02-22T02:13:04.185Z,15.38
2023-02-22T02:18:20.278Z,14.48
2023-02-22T02:23:55.441Z,14.48
2023-02-22T02:29:34.146Z,13.18
2023-02-22T02:35:22.697Z,12.85
2023-02-22T02:40:44.022Z,11.85
2023-02-22T02:46:09.833Z,12.52
2023-02-22T02:51:30.657Z,12.30
2023-02-22T02:56:46.773Z,12.02
2023-02-22T03:02:36.323Z,12.30
2023-02-22T03:08:13.772Z,11.90
2023-02-22T03:13:41.501Z,11.20
2023-02-22T03:19:09.172Z,12.10
2023-02-22T03:24:37.577Z,11.18
2023-02-22T03:29:57.387Z,12.00
2023-02-22T03:35:18.427Z,10.02
2023-02-22T03:40:43.746Z,9.63
2023-02-22T03:46:01.059Z,9.95
2023-02-22T03:51:19.185Z,11.07
2023-02-22T03:56:47.342Z,10.50
2023-02-22T04:02:03.458Z,11.70
2023-02-22T04:07:19.942Z,11.13
2023-02-22T04:12:36.895Z,11.93
2023-02-22T04:17:52.590Z,11.32
2023-02-22T04:23:08.013Z,10.73
2023-02-22T04:28:23.628Z,11.63
2023-02-22T04:33:39.274Z,11.15
2023-02-22T04:38:55.290Z,10.48
2023-02-22T04:44:10.904Z,10.63
2023-02-22T04:49:26.805Z,10.38
2023-02-22T04:54:42.957Z,10.02
2023-02-22T04:59:58.683Z,9.45
2023-02-22T05:05:19.442Z,11.52
2023-02-22T05:10:35.298Z,10.23
2023-02-22T05:15:51.263Z,10.45
2023-02-22T05:21:07.222Z,10.60
2023-02-22T05:26:23.735Z,11.27
2023-02-22T05:31:39.812Z,10.43
2023-02-22T05:36:55.541Z,10.63
2023-02-22T05:42:11.442Z,9.32
2023-02-22T05:47:28.222Z,9.95
2023-02-22T05:52:44.194Z,8.82
2023-02-22T05:57:59.854Z,10.27
2023-02-22T06:03:15.922Z,11.40
2023-02-22T06:08:31.977Z,10.70
2023-02-22T06:13:52.764Z,11.90
2023-02-22T06:19:08.291Z,11.52
2023-02-22T06:24:24.262Z,11.55
2023-02-22T06:29:44.783Z,12.55
2023-02-22T06:35:00.348Z,12.80
2023-02-22T06:40:16.193Z,14.45
2023-02-22T06:45:31.881Z,14.48
2023-02-22T06:50:47.957Z,15.32
2023-02-22T06:56:03.991Z,15.15
2023-02-22T07:01:19.804Z,12.55
2023-02-22T07:06:36.488Z,11.88
2023-02-22T07:11:51.932Z,10.73
2023-02-22T07:17:07.769Z,13.27
2023-02-22T07:22:23.096Z,11.98
2023-02-22T07:27:40.307Z,10.07
2023-02-22T07:32:56.579Z,8.95
2023-02-22T07:38:12.895Z,9.32
2023-02-22T07:43:29.422Z,10.32
2023-02-22T07:48:45.290Z,9.20
2023-02-22T07:54:01.209Z,9.43
2023-02-22T07:59:17.059Z,13.57
2023-02-22T08:04:32.791Z,10.70
2023-02-22T08:09:47.963Z,9.80
2023-02-22T08:15:05.611Z,10.43
2023-02-22T08:20:21.962Z,8.05
2023-02-22T08:25:37.753Z,8.65
2023-02-22T08:30:53.754Z,7.80
2023-02-22T08:36:09.903Z,8.00
2023-02-22T08:41:25.491Z,8.75
2023-02-22T08:46:40.818Z,7.47
2023-02-22T08:51:56.699Z,7.90
2023-02-22T08:57:13.062Z,7.75
2023-02-22T09:02:28.870Z,7.20
2023-02-22T09:07:45.438Z,6.32
2023-02-22T09:13:01.748Z,6.72
2023-02-22T09:18:18.464Z,6.70
2023-02-22T09:23:34.894Z,8.55
2023-02-22T09:28:51.140Z,6.72
2023-02-22T09:34:14.426Z,9.32
2023-02-22T09:39:30.526Z,6.57
2023-02-22T09:44:58.333Z,6.72
2023-02-22T09:50:17.689Z,6.75
2023-02-22T09:55:45.520Z,6.72
2023-02-22T10:01:33.358Z,6.13
2023-02-22T10:07:12.044Z,7.40
2023-02-22T10:12:54.017Z,5.82
2023-02-22T10:18:09.390Z,6.45
2023-02-22T10:23:31.455Z,5.80
2023-02-22T10:29:07.342Z,6.00
2023-02-22T10:34:27.009Z,5.97
2023-02-22T10:39:44.659Z,5.65
2023-02-22T10:45:00.819Z,5.78
2023-02-22T10:50:18.303Z,5.07
2023-02-22T10:55:34.864Z,6.22
2023-02-22T11:00:52.104Z,5.72
2023-02-22T11:06:21.888Z,3.83
2023-02-22T11:11:40.289Z,4.57
2023-02-22T11:16:58.166Z,5.05
2023-02-22T11:22:43.342Z,5.82
2023-02-22T11:28:31.189Z,4.38
2023-02-22T11:33:59.724Z,4.95
2023-02-22T11:39:27.712Z,4.53
2023-02-22T11:44:45.351Z,4.30
2023-02-22T11:50:02.457Z,4.97
2023-02-22T11:55:43.303Z,4.82
2023-02-22T12:01:17.546Z,6.50
2023-02-22T12:06:42.402Z,6.22
2023-02-22T12:12:28.238Z,5.93
2023-02-22T12:18:19.049Z,5.45
2023-02-22T12:23:45.203Z,5.63
2023-02-22T12:29:14.705Z,5.32
2023-02-22T12:34:38.432Z,5.10
2023-02-22T12:40:08.603Z,5.45
2023-02-22T12:45:40.078Z,5.00
2023-02-22T12:51:20.874Z,6.10
2023-02-22T12:56:53.242Z,5.90
2023-02-22T13:02:20.522Z,5.80
2023-02-22T13:08:02.909Z,5.57
2023-02-22T13:13:24.020Z,5.82
2023-02-22T13:19:07.496Z,5.93
2023-02-22T13:24:30.525Z,5.43
2023-02-22T13:29:52.273Z,4.60
2023-02-22T13:35:57.107Z,4.90
2023-02-22T13:41:21.477Z,5.47
2023-02-22T13:46:50.900Z,5.25
2023-02-22T13:52:14.772Z,4.90
2023-02-22T13:57:48.404Z,5.38
2023-02-22T14:03:16.012Z,6.00
2023-02-22T14:08:31.926Z,5.78
2023-02-22T14:14:00.986Z,5.35
2023-02-22T14:19:23.870Z,5.97
2023-02-22T14:24:48.386Z,5.15
2023-02-22T14:30:05.864Z,5.25
2023-02-22T14:35:28.793Z,5.38
2023-02-22T14:40:51.619Z,4.47
2023-02-22T14:51:53.518Z,4.57
2023-02-22T14:57:29.821Z,4.60
2023-02-22T15:02:48.474Z,4.90
2023-02-22T15:08:08.044Z,4.55
2023-02-22T15:13:26.894Z,4.93
2023-02-22T15:18:46.463Z,3.47
2023-02-22T15:24:08.256Z,4.65
2023-02-22T15:29:29.669Z,3.63
2023-02-22T15:34:45.606Z,3.08
2023-02-22T15:40:14.748Z,3.40
2023-02-22T15:45:32.723Z,3.92
2023-02-22T15:51:14.172Z,4.75
2023-02-22T15:56:35.209Z,4.50
2023-02-22T16:01:54.164Z,4.32
2023-02-22T16:07:17.302Z,3.72
2023-02-22T16:12:33.167Z,5.22
2023-02-22T16:18:01.392Z,4.45
2023-02-22T16:23:26.525Z,4.30
2023-02-22T16:28:56.274Z,5.10
2023-02-22T16:34:15.301Z,5.57
2023-02-22T16:39:36.158Z,6.20
2023-02-22T16:50:08.450Z,6.80
2023-02-22T16:55:25.044Z,8.35
2023-02-22T17:00:42.506Z,6.55
2023-02-22T17:05:58.080Z,6.38
2023-02-22T17:11:15.064Z,6.05
2023-02-22T17:16:31.296Z,7.25
2023-02-22T17:21:48.185Z,6.15
2023-02-22T17:27:04.107Z,6.55
2023-02-22T17:32:19.849Z,8.18
2023-02-22T17:37:35.877Z,7.55
2023-02-22T17:42:55.244Z,7.10
2023-02-22T17:48:10.896Z,8.95
2023-02-22T17:53:26.910Z,9.73
2023-02-22T17:58:42.949Z,14.00
2023-02-22T18:04:00.992Z,20.15
2023-02-22T18:09:17.954Z,19.58
2023-02-22T18:14:34.465Z,20.55
2023-02-22T18:19:50.168Z,17.73
2023-02-22T18:25:06.538Z,14.98
2023-02-22T18:30:22.331Z,15.70
2023-02-22T18:35:48.426Z,12.57
2023-02-22T18:41:07.487Z,12.57
2023-02-22T18:46:24.229Z,11.60
2023-02-22T18:51:43.674Z,10.68
2023-02-22T18:57:07.011Z,12.40
2023-02-22T19:02:22.984Z,10.70
2023-02-22T19:07:39.709Z,9.30
2023-02-22T19:12:55.313Z,10.48
2023-02-22T19:18:11.380Z,10.23
2023-02-22T19:23:28.546Z,11.82
2023-02-22T19:28:45.835Z,13.80
2023-02-22T19:34:09.321Z,10.73
2023-02-22T19:39:26.193Z,11.18
2023-02-22T19:44:42.319Z,12.50
2023-02-22T19:49:59.782Z,11.05
2023-02-22T19:55:16.247Z,12.60
2023-02-22T20:00:35.698Z,10.35
2023-02-22T20:05:51.174Z,10.05
2023-02-22T20:11:10.890Z,11.15
2023-02-22T20:16:26.987Z,10.68
2023-02-22T20:21:42.894Z,12.32
2023-02-22T20:26:59.380Z,15.85
2023-02-22T20:32:16.744Z,13.13
2023-02-22T20:37:34.636Z,14.25
2023-02-22T20:42:50.171Z,13.90
2023-02-22T20:48:06.077Z,15.40
2023-02-22T20:53:21.948Z,12.35
2023-02-22T20:58:37.443Z,16.73
2023-02-22T21:03:53.049Z,14.93
2023-02-22T21:09:14.761Z,15.35
2023-02-22T21:14:32.901Z,15.40
2023-02-22T21:19:48.632Z,12.85
2023-02-22T21:25:04.984Z,13.50
2023-02-22T21:30:20.857Z,12.88
2023-02-22T21:35:43.082Z,13.05
2023-02-22T21:40:58.762Z,15.80
2023-02-22T21:46:14.244Z,15.20
2023-02-22T21:51:32.949Z,13.68
2023-02-22T21:56:50.026Z,13.85
2023-02-22T22:02:06.331Z,15.80
2023-02-22T22:07:23.030Z,15.75
2023-02-22T22:12:42.154Z,12.25
2023-02-22T22:18:05.706Z,13.30
2023-02-22T22:23:21.340Z,11.63
2023-02-22T22:28:42.584Z,10.80
2023-02-22T22:33:58.426Z,10.52
2023-02-22T22:39:13.805Z,9.40
2023-02-22T22:44:33.160Z,11.85
2023-02-22T22:49:50.625Z,10.85
2023-02-22T22:55:12.250Z,11.23
2023-02-22T23:00:34.861Z,10.63
2023-02-22T23:05:50.516Z,11.75
2023-02-22T23:11:09.376Z,11.45
2023-02-22T23:16:25.545Z,10.77
2023-02-22T23:21:43.809Z,11.70
2023-02-22T23:27:02.291Z,11.23
2023-02-22T23:32:18.330Z,10.70
2023-02-22T23:37:35.747Z,11.43
2023-02-22T23:42:56.187Z,10.43
2023-02-22T23:48:13.090Z,10.20
2023-02-22T23:53:30.283Z,8.80
2023-02-22T23:58:50.486Z,9.63
